Time;durP1;ratioP1;P1;durP2;ratioP2;P2;SDS_P1;SDS_P2;PMS_P1;PMS_P2;Temp;Humidity;BMP_temperature;BMP_pressure;BME280_temperature;BME280_humidity;BME280_pressure;Samples;Min_cycle;Max_cycle;Signal;HPM_P1;HPM_P2
2023/09/17 00:00:32;;;;;;;;;;;;;;;22.94;60.82;99585.78;1084170;54;1498;-80
2023/09/17 00:01:33;;;;;;;;;;;;;;;22.89;61.03;99591.94;1083868;54;1157;-79
2023/09/17 00:02:36;;;;;;;;;;;;;;;22.85;61.12;99594.31;1084454;54;1174;-80
2023/09/17 00:03:37;;;;;;;;;;;;;;;22.85;61.22;99601.66;1083572;47;1145;-79
2023/09/17 00:04:40;;;;;;;;;;;;;;;22.84;61.08;99592.66;1083086;54;1007;-79
2023/09/17 00:05:42;;;;;;;;;;;;;;;22.85;61.19;99591.59;1083097;54;1299;-79
2023/09/17 00:06:45;;;;;;;;;;;;;;;22.85;61.31;99596.19;1082846;54;1042;-80
2023/09/17 00:07:46;;;;;;;;;;;;;;;22.87;61.38;99589.44;1083014;54;1129;-80
2023/09/17 00:08:49;;;;;;;;;;;;;;;22.92;61.31;99593.34;1082806;47;1142;-79
2023/09/17 00:09:50;;;;;;;;;;;;;;;22.91;61.48;99584.34;1083003;54;1604;-80
2023/09/17 00:10:53;;;;;;;;;;;;;;;22.88;61.61;99590.28;1082961;47;1471;-79
2023/09/17 00:11:56;;;;;;;;;;;;;;;22.83;62.06;99585.53;1082504;47;1903;-80
2023/09/17 00:12:57;;;;;;;;;;;;;;;22.80;61.68;99586.00;1083051;54;1515;-79
2023/09/17 00:13:58;;;;;;;;;;;;;;;22.77;62.01;99582.94;1082845;47;1100;-79
2023/09/17 00:15:03;;;;;;;;;;;;;;;22.69;62.11;99581.38;1083085;47;1149;-79
2023/09/17 00:16:04;;;;;;;;;;;;;;;22.63;62.68;99579.59;1083604;54;1162;-79
2023/09/17 00:17:08;;;;;;;;;;;;;;;22.62;62.47;99581.50;1083516;54;1138;-79
2023/09/17 00:18:09;;;;;;;;;;;;;;;22.63;62.23;99579.59;1083648;54;1090;-81
2023/09/17 00:19:12;;;;;;;;;;;;;;;22.62;62.31;99583.41;1083664;47;1777;-80
2023/09/17 00:20:13;;;;;;;;;;;;;;;22.62;62.37;99588.84;1083644;54;1379;-79
2023/09/17 00:21:16;;;;;;;;;;;;;;;22.64;62.28;99586.72;1083588;54;1095;-80
2023/09/17 00:22:17;;;;;;;;;;;;;;;22.66;62.26;99579.97;1084625;54;1139;-79
2023/09/17 00:23:20;;;;;;;;;;;;;;;22.71;62.05;99585.53;1085058;47;1150;-79
2023/09/17 00:24:21;;;;;;;;;;;;;;;22.73;62.34;99588.03;1087375;47;1612;-79
2023/09/17 00:25:25;;;;;;;;;;;;;;;22.74;62.32;99586.97;1087704;47;1078;-79
2023/09/17 00:26:28;;;;;;;;;;;;;;;22.65;62.81;99586.47;1087663;47;1118;-79
2023/09/17 00:27:31;;;;;;;;;;;;;;;22.54;63.24;99582.69;1087385;47;1007;-80
2023/09/17 00:28:32;;;;;;;;;;;;;;;22.54;62.65;99581.84;1088119;47;1126;-80
2023/09/17 00:29:36;;;;;;;;;;;;;;;22.53;62.90;99581.03;1087536;54;1229;-81
2023/09/17 00:30:38;;;;;;;;;;;;;;;22.52;62.63;99571.19;1087358;54;1448;-80
2023/09/17 00:31:41;;;;;;;;;;;;;;;22.53;63.37;99580.22;1087580;47;1113;-80
2023/09/17 00:32:41;;;;;;;;;;;;;;;22.40;63.59;99583.94;1085856;54;1854;-80
2023/09/17 00:33:52;;;;;;;;;;;;;;;22.42;63.32;99582.69;1087967;54;1597;-79
2023/09/17 00:35:03;;;;;;;;;;;;;;;22.46;63.52;99577.59;1087966;47;1654;-81
2023/09/17 00:36:06;;;;;;;;;;;;;;;22.44;63.08;99585.16;1087620;54;1174;-79
2023/09/17 00:37:10;;;;;;;;;;;;;;;22.46;63.20;99574.00;1087526;47;979;-79
2023/09/17 00:38:14;;;;;;;;;;;;;;;22.48;62.81;99575.47;1087680;54;1213;-80
2023/09/17 00:39:15;;;;;;;;;;;;;;;22.52;62.71;99584.00;1087246;47;1200;-80
2023/09/17 00:40:18;;;;;;;;;;;;;;;22.54;62.42;99579.13;1086545;54;1396;-81
2023/09/17 00:41:19;;;;;;;;;;;;;;;22.54;62.57;99581.84;1084007;47;1095;-79
2023/09/17 00:42:25;;;;;;;;;;;;;;;22.57;62.63;99581.38;1085068;47;981;-79
2023/09/17 00:43:25;;;;;;;;;;;;;;;22.58;62.49;99586.56;1084317;47;1122;-80
2023/09/17 00:44:29;;;;;;;;;;;;;;;22.59;62.81;99588.25;1083097;54;1504;-79
2023/09/17 00:45:31;;;;;;;;;;;;;;;22.59;62.76;99584.69;1082726;54;1072;-79
2023/09/17 00:46:34;;;;;;;;;;;;;;;22.54;63.92;99587.28;1082765;46;1104;-79
2023/09/17 00:47:35;;;;;;;;;;;;;;;22.48;63.92;99586.34;1083557;54;1162;-79
2023/09/17 00:48:38;;;;;;;;;;;;;;;22.44;64.59;99585.16;1084159;47;1529;-80
2023/09/17 00:49:39;;;;;;;;;;;;;;;22.43;64.37;99583.50;1083835;54;1058;-80
2023/09/17 00:50:42;;;;;;;;;;;;;;;22.49;63.71;99582.53;1083913;54;1419;-79
2023/09/17 00:51:43;;;;;;;;;;;;;;;22.51;63.09;99580.41;1083793;47;1165;-79
2023/09/17 00:52:44;;;;;;;;;;;;;;;22.52;63.41;99584.00;1083886;47;1857;-79
2023/09/17 00:53:47;;;;;;;;;;;;;;;22.53;63.42;99585.66;1083913;54;1056;-80
2023/09/17 00:54:49;;;;;;;;;;;;;;;22.54;63.48;99579.13;1083973;54;1142;-80
2023/09/17 00:55:54;;;;;;;;;;;;;;;22.54;63.96;99581.84;1083462;47;1111;-80
2023/09/17 00:56:56;;;;;;;;;;;;;;;22.58;63.59;99583.84;1083475;46;1031;-79
2023/09/17 00:58:04;;;;;;;;;;;;;;;22.60;63.59;99578.19;1083859;54;1162;-79
2023/09/17 00:59:05;;;;;;;;;;;;;;;22.62;63.38;99577.94;1083502;47;1109;-80
2023/09/17 01:00:09;;;;;;;;;;;;;;;22.60;63.77;99580.91;1083554;47;1345;-79
2023/09/17 01:01:14;;;;;;;;;;;;;;;22.57;63.67;99579.50;1083511;54;1594;-81
2023/09/17 01:02:17;;;;;;;;;;;;;;;22.56;63.63;99574.25;1083388;47;1100;-78
2023/09/17 01:03:21;;;;;;;;;;;;;;;22.49;64.14;99574.38;1083816;54;992;-81
2023/09/17 01:04:22;;;;;;;;;;;;;;;22.43;64.66;99573.41;1083834;54;1060;-80
2023/09/17 01:05:25;;;;;;;;;;;;;;;22.40;64.69;99573.91;1083359;47;1512;-80
2023/09/17 01:06:27;;;;;;;;;;;;;;;22.37;64.48;99568.06;1083586;47;1150;-80
2023/09/17 01:07:31;;;;;;;;;;;;;;;22.40;64.58;99570.34;1083141;47;1558;-81
2023/09/17 01:08:32;;;;;;;;;;;;;;;22.34;64.60;99571.25;1083638;54;964;-79
2023/09/17 01:09:36;;;;;;;;;;;;;;;22.29;65.10;99575.50;1083606;54;1172;-79
2023/09/17 01:10:39;;;;;;;;;;;;;;;22.21;65.21;99578.56;1083566;54;1374;-79
2023/09/17 01:11:43;;;;;;;;;;;;;;;22.15;65.40;99584.13;1083350;47;1570;-80
2023/09/17 01:12:44;;;;;;;;;;;;;;;22.20;64.88;99578.78;1083694;47;1886;-80
2023/09/17 01:13:51;;;;;;;;;;;;;;;22.19;64.92;99591.59;1083778;54;1122;-80
2023/09/17 01:14:52;;;;;;;;;;;;;;;22.25;64.92;99582.47;1083891;47;1128;-79
2023/09/17 01:15:53;;;;;;;;;;;;;;;22.29;64.28;99580.94;1085350;54;1153;-81
2023/09/17 01:17:00;;;;;;;;;;;;;;;22.20;64.64;99584.25;1086165;47;1086;-81
2023/09/17 01:18:02;;;;;;;;;;;;;;;22.13;64.47;99587.06;1085518;54;1157;-81
2023/09/17 01:19:07;;;;;;;;;;;;;;;22.06;64.84;99586.34;1086439;54;1002;-80
2023/09/17 01:20:24;;;;;;;;;;;;;;;22.06;64.80;99591.78;1086501;54;1442;-80
2023/09/17 01:21:29;;;;;;;;;;;;;;;22.03;64.84;99600.38;1087364;47;1138;-81
2023/09/17 01:22:35;;;;;;;;;;;;;;;22.03;64.72;99598.50;1087518;54;1193;-80
2023/09/17 01:23:49;;;;;;;;;;;;;;;22.01;64.59;99600.63;1087519;47;1153;-80
2023/09/17 01:24:54;;;;;;;;;;;;;;;21.93;65.26;99593.63;1087516;54;1158;-81
2023/09/17 01:26:01;;;;;;;;;;;;;;;21.86;65.41;99601.03;1087348;47;1216;-80
2023/09/17 01:27:05;;;;;;;;;;;;;;;21.75;65.84;99605.38;1087784;54;1062;-79
2023/09/17 01:28:11;;;;;;;;;;;;;;;21.69;65.82;99616.34;1087169;47;1239;-80
2023/09/17 01:29:12;;;;;;;;;;;;;;;21.64;66.36;99606.97;1087187;47;1062;-79
2023/09/17 01:30:19;;;;;;;;;;;;;;;21.63;66.37;99610.75;1087726;54;1373;-80
2023/09/17 01:31:20;;;;;;;;;;;;;;;21.62;66.26;99610.97;1087484;47;1121;-79
2023/09/17 01:32:24;;;;;;;;;;;;;;;21.70;65.91;99615.28;1087773;54;1892;-79
2023/09/17 01:33:24;;;;;;;;;;;;;;;21.70;65.97;99605.22;1087629;46;1030;-79
2023/09/17 01:34:40;;;;;;;;;;;;;;;21.72;65.76;99608.56;1086775;47;1145;-78
2023/09/17 01:35:44;;;;;;;;;;;;;;;21.77;65.36;99603.25;1085320;47;1105;-79
2023/09/17 01:36:47;;;;;;;;;;;;;;;21.82;65.05;99613.47;1085073;47;1079;-79
2023/09/17 01:37:53;;;;;;;;;;;;;;;21.84;65.25;99605.06;1085000;47;1461;-78
2023/09/17 01:38:59;;;;;;;;;;;;;;;21.89;65.03;99613.34;1084547;46;1190;-78
2023/09/17 01:40:02;;;;;;;;;;;;;;;21.86;65.24;99608.38;1083813;54;1354;-79
2023/09/17 01:41:06;;;;;;;;;;;;;;;21.88;65.23;99609.81;1084516;54;1558;-79
2023/09/17 01:42:10;;;;;;;;;;;;;;;21.87;65.71;99623.66;1084679;54;1429;-79
2023/09/17 01:43:13;;;;;;;;;;;;;;;21.78;65.90;99628.56;1084621;54;1177;-79
2023/09/17 01:44:14;;;;;;;;;;;;;;;21.74;65.83;99613.75;1084722;54;1208;-79
2023/09/17 01:45:18;;;;;;;;;;;;;;;21.74;65.83;99616.47;1083823;54;1192;-77
2023/09/17 01:46:20;;;;;;;;;;;;;;;21.75;65.66;99615.41;1083533;47;1546;-78
2023/09/17 01:47:20;;;;;;;;;;;;;;;21.73;65.66;99615.66;1084116;54;1263;-78
2023/09/17 01:48:25;;;;;;;;;;;;;;;21.70;65.79;99615.28;1083909;47;1156;-78
2023/09/17 01:49:27;;;;;;;;;;;;;;;21.69;65.98;99619.06;1083642;54;1093;-79
2023/09/17 01:50:32;;;;;;;;;;;;;;;21.63;66.12;99618.91;1083428;47;1397;-79
2023/09/17 01:51:33;;;;;;;;;;;;;;;21.68;65.86;99620.13;1083672;54;1008;-79
2023/09/17 01:52:37;;;;;;;;;;;;;;;21.70;65.67;99618.81;1083840;47;1898;-79
2023/09/17 01:53:37;;;;;;;;;;;;;;;21.68;65.85;99612.78;1084427;54;1628;-79
2023/09/17 01:54:41;;;;;;;;;;;;;;;21.64;65.69;99623.28;1084692;47;1145;-79
2023/09/17 01:55:41;;;;;;;;;;;;;;;21.66;65.82;99621.19;1086539;47;1110;-80
2023/09/17 01:56:43;;;;;;;;;;;;;;;21.67;65.79;99622.03;1087317;47;1173;-81
2023/09/17 01:57:49;;;;;;;;;;;;;;;21.70;65.72;99624.25;1086296;47;1149;-78
2023/09/17 01:58:49;;;;;;;;;;;;;;;21.66;66.09;99626.63;1086446;54;1141;-79
2023/09/17 01:59:52;;;;;;;;;;;;;;;21.68;65.74;99620.13;1086307;47;1178;-79
2023/09/17 02:00:54;;;;;;;;;;;;;;;21.69;65.52;99625.31;1085748;47;1039;-80
2023/09/17 02:01:57;;;;;;;;;;;;;;;21.69;65.95;99629.94;1085664;54;1085;-80
2023/09/17 02:02:57;;;;;;;;;;;;;;;21.70;65.79;99623.44;1084757;54;1220;-79
2023/09/17 02:04:06;;;;;;;;;;;;;;;21.72;65.28;99632.22;1085890;47;1191;-80
2023/09/17 02:05:07;;;;;;;;;;;;;;;21.77;65.04;99621.47;1086869;54;1127;-79
2023/09/17 02:06:13;;;;;;;;;;;;;;;21.79;65.07;99635.69;1086275;54;1080;-79
2023/09/17 02:07:15;;;;;;;;;;;;;;;21.78;64.97;99640.25;1085974;54;1022;-80
2023/09/17 02:08:20;;;;;;;;;;;;;;;21.77;65.01;99632.34;1085285;54;1145;-80
2023/09/17 02:09:21;;;;;;;;;;;;;;;21.74;65.34;99641.81;1083729;47;1214;-79
2023/09/17 02:10:24;;;;;;;;;;;;;;;21.75;65.19;99645.34;1083169;54;1408;-79
2023/09/17 02:11:25;;;;;;;;;;;;;;;21.76;65.27;99647.00;1082770;54;1052;-79
2023/09/17 02:12:26;;;;;;;;;;;;;;;21.73;65.08;99644.72;1083209;54;1893;-80
2023/09/17 02:13:32;;;;;;;;;;;;;;;21.75;65.06;99650.78;1082908;54;1115;-79
2023/09/17 02:14:32;;;;;;;;;;;;;;;21.75;65.34;99645.34;1082840;47;1035;-79
2023/09/17 02:15:36;;;;;;;;;;;;;;;21.74;65.46;99646.41;1082204;47;1126;-79
2023/09/17 02:16:37;;;;;;;;;;;;;;;21.64;66.25;99642.31;1081933;47;1435;-79
2023/09/17 02:17:42;;;;;;;;;;;;;;;21.56;66.71;99644.50;1081956;54;1050;-78
2023/09/17 02:18:42;;;;;;;;;;;;;;;21.52;66.46;99641.41;1081422;54;1232;-79
2023/09/17 02:19:46;;;;;;;;;;;;;;;21.53;66.42;99642.22;1082200;47;1075;-79
2023/09/17 02:20:46;;;;;;;;;;;;;;;21.53;66.85;99643.06;1082262;47;1562;-80
2023/09/17 02:21:51;;;;;;;;;;;;;;;21.59;66.29;99641.34;1082178;47;1051;-80
2023/09/17 02:22:51;;;;;;;;;;;;;;;21.57;66.25;99632.56;1082058;47;1611;-78
2023/09/17 02:23:55;;;;;;;;;;;;;;;21.52;66.57;99638.69;1082115;54;1086;-78
2023/09/17 02:24:55;;;;;;;;;;;;;;;21.49;66.43;99641.84;1082203;54;1653;-78
2023/09/17 02:25:58;;;;;;;;;;;;;;;21.47;66.90;99638.53;1081937;54;1142;-79
2023/09/17 02:26:59;;;;;;;;;;;;;;;21.43;66.73;99634.63;1081652;54;1547;-77
2023/09/17 02:28:01;;;;;;;;;;;;;;;21.39;66.71;99636.97;1082199;47;1145;-78
2023/09/17 02:29:08;;;;;;;;;;;;;;;21.41;67.24;99634.00;1082115;47;1155;-77
2023/09/17 02:30:09;;;;;;;;;;;;;;;21.43;66.87;99631.91;1081929;47;1397;-78
2023/09/17 02:31:13;;;;;;;;;;;;;;;21.45;67.03;99636.03;1082146;47;1027;-78
2023/09/17 02:32:14;;;;;;;;;;;;;;;21.44;67.46;99633.56;1081922;47;1154;-78
2023/09/17 02:33:17;;;;;;;;;;;;;;;21.40;67.55;99632.34;1082174;54;1915;-78
2023/09/17 02:34:17;;;;;;;;;;;;;;;21.40;67.34;99629.63;1081997;47;1495;-78
2023/09/17 02:35:21;;;;;;;;;;;;;;;21.37;67.10;99628.19;1082035;54;1043;-78
2023/09/17 02:36:22;;;;;;;;;;;;;;;21.41;67.23;99631.28;1083403;46;1469;-78
2023/09/17 02:37:26;;;;;;;;;;;;;;;21.33;67.53;99633.25;1082873;54;1059;-77
2023/09/17 02:38:26;;;;;;;;;;;;;;;21.42;67.05;99630.22;1083118;54;1064;-78
2023/09/17 02:39:30;;;;;;;;;;;;;;;21.42;67.17;99632.94;1083014;47;1171;-78
2023/09/17 02:40:30;;;;;;;;;;;;;;;21.42;67.41;99630.22;1082905;47;1600;-79
2023/09/17 02:41:33;;;;;;;;;;;;;;;21.42;67.09;99630.22;1083315;54;918;-79
2023/09/17 02:42:34;;;;;;;;;;;;;;;21.43;67.37;99634.63;1082617;47;1150;-79
2023/09/17 02:43:36;;;;;;;;;;;;;;;21.38;67.81;99626.28;1082502;54;1162;-78
2023/09/17 02:44:42;;;;;;;;;;;;;;;21.38;67.34;99620.84;1082927;54;1192;-78
2023/09/17 02:45:43;;;;;;;;;;;;;;;21.34;67.47;99626.75;1082678;54;1452;-78
2023/09/17 02:46:47;;;;;;;;;;;;;;;21.33;67.44;99619.66;1082706;54;1166;-79
2023/09/17 02:47:48;;;;;;;;;;;;;;;21.38;67.51;99626.28;1082823;54;1096;-79
2023/09/17 02:48:53;;;;;;;;;;;;;;;21.37;67.57;99621.91;1082869;54;1130;-79
2023/09/17 02:49:54;;;;;;;;;;;;;;;21.41;67.39;99623.13;1083521;54;1350;-78
2023/09/17 02:50:57;;;;;;;;;;;;;;;21.41;67.31;99618.50;1083075;47;1590;-78
2023/09/17 02:51:58;;;;;;;;;;;;;;;21.41;67.51;99628.56;1082823;47;1206;-79
2023/09/17 02:53:01;;;;;;;;;;;;;;;21.42;67.44;99624.78;1082808;54;1893;-79
2023/09/17 02:54:02;;;;;;;;;;;;;;;21.45;66.78;99630.59;1082483;47;1543;-78
2023/09/17 02:55:08;;;;;;;;;;;;;;;21.48;66.70;99629.31;1082801;47;1081;-78
2023/09/17 02:56:08;;;;;;;;;;;;;;;21.45;67.59;99627.88;1082920;54;1454;-78
2023/09/17 02:57:12;;;;;;;;;;;;;;;21.43;67.54;99626.47;1082547;54;957;-78
2023/09/17 02:58:12;;;;;;;;;;;;;;;21.42;67.57;99624.78;1082902;54;987;-78
2023/09/17 02:59:16;;;;;;;;;;;;;;;21.38;67.45;99627.13;1082963;54;1149;-78
2023/09/17 03:00:21;;;;;;;;;;;;;;;21.30;67.97;99622.00;1083143;54;1628;-78
2023/09/17 03:01:25;;;;;;;;;;;;;;;21.34;67.66;99625.91;1083603;47;1198;-79
2023/09/17 03:02:25;;;;;;;;;;;;;;;21.31;67.41;99624.50;1083033;47;1145;-78
2023/09/17 03:03:29;;;;;;;;;;;;;;;21.37;67.18;99621.91;1083275;47;1081;-79
2023/09/17 03:04:29;;;;;;;;;;;;;;;21.41;66.83;99623.13;1083672;47;1047;-79
2023/09/17 03:05:33;;;;;;;;;;;;;;;21.32;67.97;99626.16;1083317;47;1069;-77
2023/09/17 03:06:33;;;;;;;;;;;;;;;21.30;67.40;99617.38;1083534;54;1623;-79
2023/09/17 03:07:36;;;;;;;;;;;;;;;21.27;68.03;99622.44;1083462;47;1165;-78
2023/09/17 03:08:41;;;;;;;;;;;;;;;21.18;68.19;99619.19;1083529;47;1153;-78
2023/09/17 03:09:44;;;;;;;;;;;;;;;21.06;69.00;99621.00;1083416;47;1591;-79
2023/09/17 03:10:45;;;;;;;;;;;;;;;21.10;68.35;99624.91;1083376;54;1367;-79
2023/09/17 03:11:48;;;;;;;;;;;;;;;21.10;68.65;99622.19;1083623;54;1547;-77
2023/09/17 03:12:49;;;;;;;;;;;;;;;21.13;68.42;99624.47;1083611;54;1904;-79
2023/09/17 03:13:52;;;;;;;;;;;;;;;21.12;68.80;99622.81;1083850;54;1173;-78
2023/09/17 03:14:53;;;;;;;;;;;;;;;21.09;68.95;99625.97;1083484;54;910;-78
2023/09/17 03:16:00;;;;;;;;;;;;;;;21.09;68.58;99623.25;1083224;54;1169;-78
2023/09/17 03:17:03;;;;;;;;;;;;;;;21.10;68.94;99633.91;1083525;47;1200;-78
2023/09/17 03:18:06;;;;;;;;;;;;;;;21.12;69.14;99626.34;1083559;54;1534;-78
2023/09/17 03:19:07;;;;;;;;;;;;;;;21.14;68.44;99628.84;1082986;47;1136;-79
2023/09/17 03:20:18;;;;;;;;;;;;;;;21.09;68.69;99628.69;1082790;54;1462;-78
2023/09/17 03:21:19;;;;;;;;;;;;;;;21.10;68.35;99635.78;1083484;54;1500;-79
2023/09/17 03:22:22;;;;;;;;;;;;;;;21.13;67.99;99629.91;1083462;54;1055;-78
2023/09/17 03:23:22;;;;;;;;;;;;;;;21.12;68.25;99633.69;1083727;54;1079;-79
2023/09/17 03:24:23;;;;;;;;;;;;;;;21.13;68.44;99629.91;1083761;54;1466;-80
2023/09/17 03:25:26;;;;;;;;;;;;;;;21.14;68.38;99634.28;1083517;47;1129;-79
2023/09/17 03:26:27;;;;;;;;;;;;;;;21.17;67.74;99628.38;1084049;54;1411;-78
2023/09/17 03:27:32;;;;;;;;;;;;;;;21.17;68.05;99639.25;1083711;54;1071;-78
2023/09/17 03:28:33;;;;;;;;;;;;;;;21.16;67.67;99637.63;1083912;54;1157;-78
2023/09/17 03:29:36;;;;;;;;;;;;;;;21.12;68.36;99637.22;1084082;54;1430;-77
2023/09/17 03:30:37;;;;;;;;;;;;;;;21.15;67.86;99638.66;1084014;54;1541;-78
2023/09/17 03:31:45;;;;;;;;;;;;;;;21.18;67.97;99643.63;1083629;54;1187;-79
2023/09/17 03:32:46;;;;;;;;;;;;;;;21.21;67.88;99634.22;1083946;47;1116;-79
2023/09/17 03:33:49;;;;;;;;;;;;;;;21.19;68.13;99634.44;1083707;54;1909;-79
2023/09/17 03:34:50;;;;;;;;;;;;;;;21.18;68.11;99639.06;1083778;54;1118;-79
2023/09/17 03:35:51;;;;;;;;;;;;;;;21.18;68.20;99639.06;1082894;47;1162;-78
2023/09/17 03:36:54;;;;;;;;;;;;;;;21.11;68.57;99637.44;1083157;47;1107;-78
2023/09/17 03:37:55;;;;;;;;;;;;;;;21.06;68.66;99646.28;1082864;47;1340;-78
2023/09/17 03:38:58;;;;;;;;;;;;;;;21.09;68.38;99642.25;1083193;47;1157;-78
2023/09/17 03:40:10;;;;;;;;;;;;;;;21.04;68.87;99635.63;1083654;47;1353;-77
2023/09/17 03:41:13;;;;;;;;;;;;;;;21.09;67.95;99642.25;1083039;47;1532;-78
2023/09/17 03:42:14;;;;;;;;;;;;;;;21.09;68.36;99636.84;1082957;47;1503;-78
2023/09/17 03:43:17;;;;;;;;;;;;;;;21.06;68.44;99634.59;1083340;47;1037;-78
2023/09/17 03:44:18;;;;;;;;;;;;;;;21.07;68.40;99637.06;1083228;47;1582;-79
2023/09/17 03:45:19;;;;;;;;;;;;;;;21.07;68.82;99630.78;1083033;47;1534;-78
2023/09/17 03:46:22;;;;;;;;;;;;;;;21.04;68.62;99632.06;1083315;54;1062;-79
2023/09/17 03:47:25;;;;;;;;;;;;;;;21.05;68.64;99636.44;1082918;47;1154;-78
2023/09/17 03:48:28;;;;;;;;;;;;;;;21.02;69.02;99632.31;1082724;54;1235;-79
2023/09/17 03:49:29;;;;;;;;;;;;;;;21.08;68.30;99629.72;1083101;47;1180;-78
2023/09/17 03:50:38;;;;;;;;;;;;;;;21.09;68.38;99631.41;1083054;47;1357;-79
2023/09/17 03:51:39;;;;;;;;;;;;;;;21.10;68.34;99633.91;1083316;47;1094;-79
2023/09/17 03:52:44;;;;;;;;;;;;;;;21.08;68.89;99636.00;1083121;54;1465;-78
2023/09/17 03:53:45;;;;;;;;;;;;;;;20.99;69.45;99640.06;1083072;47;1916;-79
2023/09/17 03:54:48;;;;;;;;;;;;;;;20.98;69.61;99639.22;1083611;47;1019;-78
2023/09/17 03:55:49;;;;;;;;;;;;;;;21.00;68.58;99626.25;1083234;47;1182;-79
2023/09/17 03:56:53;;;;;;;;;;;;;;;21.01;68.79;99641.50;1083279;47;1451;-79
2023/09/17 03:57:56;;;;;;;;;;;;;;;21.00;68.67;99645.28;1084246;47;1177;-79
2023/09/17 03:58:59;;;;;;;;;;;;;;;21.01;68.48;99646.94;1084129;54;1246;-79
2023/09/17 03:59:59;;;;;;;;;;;;;;;20.99;68.68;99643.59;1084518;54;1330;-79
2023/09/17 04:01:06;;;;;;;;;;;;;;;20.98;69.15;99641.13;1084539;47;1142;-79
2023/09/17 04:02:06;;;;;;;;;;;;;;;20.99;68.98;99642.78;1085268;47;1081;-80
2023/09/17 04:03:14;;;;;;;;;;;;;;;20.97;69.13;99645.72;1085032;47;1047;-79
2023/09/17 04:04:15;;;;;;;;;;;;;;;20.87;70.48;99639.97;1085191;46;1495;-79
2023/09/17 04:05:21;;;;;;;;;;;;;;;20.82;70.38;99642.50;1084454;47;1104;-79
2023/09/17 04:06:21;;;;;;;;;;;;;;;20.72;71.26;99645.72;1084327;54;1146;-80
2023/09/17 04:07:25;;;;;;;;;;;;;;;20.69;71.30;99640.72;1084303;54;1511;-79
2023/09/17 04:08:26;;;;;;;;;;;;;;;20.61;71.78;99644.53;1084196;54;1158;-79
2023/09/17 04:09:29;;;;;;;;;;;;;;;20.61;71.23;99644.53;1084510;54;1626;-80
2023/09/17 04:10:30;;;;;;;;;;;;;;;20.63;71.08;99639.72;1084343;47;1280;-78
2023/09/17 04:11:33;;;;;;;;;;;;;;;20.65;70.58;99640.31;1084074;47;1083;-79
2023/09/17 04:12:34;;;;;;;;;;;;;;;20.69;70.14;99646.97;1084219;54;1063;-79
2023/09/17 04:13:38;;;;;;;;;;;;;;;20.71;69.87;99650.28;1084333;47;1901;-80
2023/09/17 04:14:39;;;;;;;;;;;;;;;20.71;70.27;99646.75;1084159;47;976;-78
2023/09/17 04:15:42;;;;;;;;;;;;;;;20.70;70.37;99647.81;1084255;47;1118;-80
2023/09/17 04:16:42;;;;;;;;;;;;;;;20.73;69.90;99648.22;1084295;54;1122;-80
2023/09/17 04:17:43;;;;;;;;;;;;;;;20.73;69.69;99648.22;1084150;47;1074;-78
2023/09/17 04:18:50;;;;;;;;;;;;;;;20.73;70.03;99647.38;1084802;54;1051;-79
2023/09/17 04:19:52;;;;;;;;;;;;;;;20.70;69.93;99643.19;1085080;54;1188;-79
2023/09/17 04:20:56;;;;;;;;;;;;;;;20.67;70.00;99645.53;1084076;54;1489;-79
2023/09/17 04:22:03;;;;;;;;;;;;;;;20.66;69.60;99642.00;1084369;50;1067;-79
2023/09/17 04:23:07;;;;;;;;;;;;;;;20.65;70.08;99643.03;1085008;54;1086;-80
2023/09/17 04:24:07;;;;;;;;;;;;;;;20.66;69.85;99639.28;1084932;54;1072;-79
2023/09/17 04:25:13;;;;;;;;;;;;;;;20.66;69.79;99641.16;1085256;47;1154;-79
2023/09/17 04:26:16;;;;;;;;;;;;;;;20.56;70.26;99636.22;1085588;54;1068;-79
2023/09/17 04:27:19;;;;;;;;;;;;;;;20.52;70.41;99640.41;1084449;47;1217;-80
2023/09/17 04:28:20;;;;;;;;;;;;;;;20.51;70.31;99647.75;1084619;54;1140;-80
2023/09/17 04:29:30;;;;;;;;;;;;;;;20.51;70.13;99641.47;1084767;47;1157;-80
2023/09/17 04:30:30;;;;;;;;;;;;;;;20.49;71.21;99649.84;1085063;47;1384;-80
2023/09/17 04:31:34;;;;;;;;;;;;;;;20.45;71.87;99647.78;1085661;54;1129;-81
2023/09/17 04:32:37;;;;;;;;;;;;;;;20.46;71.08;99641.31;1084672;54;1146;-80
2023/09/17 04:33:40;;;;;;;;;;;;;;;20.45;71.66;99643.19;1084855;47;1877;-80
2023/09/17 04:34:43;;;;;;;;;;;;;;;20.41;71.68;99650.94;1086153;47;1047;-80
2023/09/17 04:35:47;;;;;;;;;;;;;;;20.44;71.39;99640.69;1085925;54;1141;-80
2023/09/17 04:36:48;;;;;;;;;;;;;;;20.44;71.22;99644.25;1085911;54;1067;-80
2023/09/17 04:37:52;;;;;;;;;;;;;;;20.44;71.25;99646.13;1085220;54;1471;-80
2023/09/17 04:38:54;;;;;;;;;;;;;;;20.43;71.30;99639.88;1085619;54;1011;-80
2023/09/17 04:39:57;;;;;;;;;;;;;;;20.44;71.40;99643.41;1085815;47;1514;-80
2023/09/17 04:40:58;;;;;;;;;;;;;;;20.42;71.04;99652.59;1085429;54;1333;-80
2023/09/17 04:42:02;;;;;;;;;;;;;;;20.46;70.98;99650.28;1085323;54;1461;-80
2023/09/17 04:43:04;;;;;;;;;;;;;;;20.46;70.91;99652.16;1084285;54;1302;-79
2023/09/17 04:44:07;;;;;;;;;;;;;;;20.47;70.55;99651.94;1084346;54;1146;-80
2023/09/17 04:45:09;;;;;;;;;;;;;;;20.48;70.80;99650.06;1084532;54;1106;-80
2023/09/17 04:46:18;;;;;;;;;;;;;;;20.47;71.12;99645.69;1084873;54;1624;-80
2023/09/17 04:47:19;;;;;;;;;;;;;;;20.34;72.74;99647.44;1083696;47;1612;-80
2023/09/17 04:48:22;;;;;;;;;;;;;;;20.31;72.72;99647.84;1083164;54;1164;-78
2023/09/17 04:49:23;;;;;;;;;;;;;;;20.29;72.25;99644.56;1083305;54;1155;-79
2023/09/17 04:50:26;;;;;;;;;;;;;;;20.29;72.09;99649.13;1083290;46;1332;-79
2023/09/17 04:51:29;;;;;;;;;;;;;;;20.29;71.95;99651.84;1082438;47;1157;-78
2023/09/17 04:52:30;;;;;;;;;;;;;;;20.27;71.93;99650.19;1081944;47;1073;-78
2023/09/17 04:53:33;;;;;;;;;;;;;;;20.28;71.77;99653.75;1082307;54;1939;-78
2023/09/17 04:54:34;;;;;;;;;;;;;;;20.30;71.68;99653.50;1081982;47;1331;-80
2023/09/17 04:55:37;;;;;;;;;;;;;;;20.29;71.65;99658.13;1083898;54;1174;-79
2023/09/17 04:56:38;;;;;;;;;;;;;;;20.24;71.65;99655.22;1084717;46;1082;-81
2023/09/17 04:57:41;;;;;;;;;;;;;;;20.18;71.88;99662.34;1085752;54;1564;-81
2023/09/17 04:58:42;;;;;;;;;;;;;;;20.19;72.29;99668.63;1083949;47;1467;-79
2023/09/17 04:59:45;;;;;;;;;;;;;;;20.18;72.23;99664.25;1084494;47;1196;-79
2023/09/17 05:00:47;;;;;;;;;;;;;;;20.15;72.18;99670.94;1084152;54;1389;-79
2023/09/17 05:01:50;;;;;;;;;;;;;;;20.14;72.61;99672.00;1085037;54;1194;-81
2023/09/17 05:02:51;;;;;;;;;;;;;;;20.14;72.29;99668.44;1086038;54;1071;-80
2023/09/17 05:03:54;;;;;;;;;;;;;;;20.15;72.20;99667.38;1086235;54;1082;-79
2023/09/17 05:04:55;;;;;;;;;;;;;;;20.13;72.50;99666.75;1086358;54;1193;-81
2023/09/17 05:06:01;;;;;;;;;;;;;;;20.15;72.69;99664.66;1086483;54;1110;-80
2023/09/17 05:07:03;;;;;;;;;;;;;;;20.16;72.78;99672.59;1086660;54;1174;-80
2023/09/17 05:08:07;;;;;;;;;;;;;;;20.15;72.74;99660.09;1086331;54;1534;-80
2023/09/17 05:09:09;;;;;;;;;;;;;;;20.16;72.66;99660.91;1084799;54;1149;-81
2023/09/17 05:10:10;;;;;;;;;;;;;;;20.19;72.53;99665.91;1084978;47;1303;-81
2023/09/17 05:11:13;;;;;;;;;;;;;;;20.22;72.39;99668.16;1084777;47;1007;-80
2023/09/17 05:12:14;;;;;;;;;;;;;;;20.20;72.73;99665.69;1084965;54;1051;-81
2023/09/17 05:13:18;;;;;;;;;;;;;;;20.22;72.34;99662.75;1084820;54;1063;-81
2023/09/17 05:14:19;;;;;;;;;;;;;;;20.23;72.36;99672.53;1084665;54;1916;-80
2023/09/17 05:15:22;;;;;;;;;;;;;;;20.25;72.76;99667.75;1084810;54;1168;-80
2023/09/17 05:16:24;;;;;;;;;;;;;;;20.25;73.07;99665.03;1084857;54;1139;-81
2023/09/17 05:17:29;;;;;;;;;;;;;;;20.24;73.29;99672.34;1085099;54;1160;-80
2023/09/17 05:18:29;;;;;;;;;;;;;;;20.26;72.68;99674.84;1084914;54;1393;-80
2023/09/17 05:19:34;;;;;;;;;;;;;;;20.15;73.37;99679.06;1084596;47;1027;-80
2023/09/17 05:20:35;;;;;;;;;;;;;;;20.03;73.91;99684.34;1084974;47;1347;-80
2023/09/17 05:21:41;;;;;;;;;;;;;;;19.97;74.36;99679.78;1085114;54;1095;-80
2023/09/17 05:22:41;;;;;;;;;;;;;;;19.92;74.46;99687.75;1086032;54;1086;-80
2023/09/17 05:23:45;;;;;;;;;;;;;;;19.88;74.55;99692.78;1085234;54;1205;-80
2023/09/17 05:24:45;;;;;;;;;;;;;;;19.91;74.03;99686.06;1083877;54;1161;-80
2023/09/17 05:25:46;;;;;;;;;;;;;;;19.88;74.36;99686.50;1084114;47;1197;-80
2023/09/17 05:26:50;;;;;;;;;;;;;;;19.90;74.15;99693.38;1083802;47;1173;-80
2023/09/17 05:27:50;;;;;;;;;;;;;;;19.92;74.16;99683.13;1083846;54;1170;-81
2023/09/17 05:28:54;;;;;;;;;;;;;;;19.86;74.17;99691.28;1083690;47;1154;-80
2023/09/17 05:29:55;;;;;;;;;;;;;;;19.78;74.35;99698.59;1084163;47;1312;-80
2023/09/17 05:30:58;;;;;;;;;;;;;;;19.77;74.69;99696.13;1083775;54;1075;-81
2023/09/17 05:31:59;;;;;;;;;;;;;;;19.75;74.72;99693.59;1083635;47;1178;-80